Remington, Wisconsin
Current Conditions -  °F | °C
As of 1:54 PM on Thursday 30 Oct 2014 (Local Time) from KISW Reporting Station
Overcast Overcast  
Wind Chill: 50°   Ceiling: 6000
Heat Index: 50°   Visibility: 10mi
Dew Point: 35°   Wind: 9mph
Humidity: 57%   Direction: 270°W
Pressure: 30.05"   Gusts: NA
Location:  44.2909°N, 90.1894°W
Report Text: KISW 301854Z AUTO 27008KT 10SM SCT039 OVC060 10/02 A3005 RMK AO2 SLP184 T01000017 $
Loading
Personal Weather Stations






























Interactive Weather Map
Tropical Storm Tracking
New forecast layout! Learn more

10-Day Weather Forecast

Advertisements
Track Severe Weather on mobile